Time;durP1;ratioP1;P1;durP2;ratioP2;P2;SDS_P1;SDS_P2;PMS_P1;PMS_P2;Temp;Humidity;BMP_temperature;BMP_pressure;BME280_temperature;BME280_humidity;BME280_pressure;Samples;Min_cycle;Max_cycle;Signal;HPM_P1;HPM_P2
2022/11/01 00:02:24;;;;;;;1.70;1.60;;;26.00;67.60;;;;;;4976761;28;20441;-84
2022/11/01 00:04:51;;;;;;;2.23;1.77;;;26.00;67.70;;;;;;4976342;28;20488;-85
2022/11/01 00:07:18;;;;;;;1.90;1.80;;;26.00;67.70;;;;;;4976617;28;20817;-85
2022/11/01 00:09:46;;;;;;;1.90;1.80;;;26.00;67.70;;;;;;4976676;28;20456;-85
2022/11/01 00:12:12;;;;;;;1.90;1.80;;;26.20;67.90;;;;;;4976527;28;20449;-85
2022/11/01 00:14:39;;;;;;;1.60;1.50;;;26.00;67.60;;;;;;4976460;28;20459;-84
2022/11/01 00:17:06;;;;;;;2.07;1.90;;;26.00;67.60;;;;;;4976019;28;20481;-85
2022/11/01 00:19:33;;;;;;;1.80;1.70;;;26.00;67.60;;;;;;4976411;28;20440;-84
2022/11/01 00:22:01;;;;;;;1.50;1.40;;;26.00;67.60;;;;;;4976420;28;20452;-85
2022/11/01 00:24:29;;;;;;;5.50;1.80;;;25.90;67.60;;;;;;4976207;28;20531;-86
2022/11/01 00:26:58;;;;;;;2.23;2.13;;;26.00;67.70;;;;;;4976310;28;20538;-85
2022/11/01 00:29:25;;;;;;;1.87;1.77;;;26.10;67.80;;;;;;4976220;28;20452;-86
2022/11/01 00:31:52;;;;;;;2.97;1.73;;;25.90;67.60;;;;;;4975861;28;20940;-84
2022/11/01 00:34:19;;;;;;;2.43;1.63;;;26.00;67.80;;;;;;4976157;28;20927;-84
2022/11/01 00:36:46;;;;;;;2.23;2.03;;;26.00;67.90;;;;;;4976135;28;20442;-84
2022/11/01 00:39:13;;;;;;;1.50;1.40;;;26.00;67.80;;;;;;4976070;28;20832;-85
2022/11/01 00:41:40;;;;;;;1.70;1.43;;;26.00;67.70;;;;;;4975931;28;20456;-85
2022/11/01 00:44:08;;;;;;;1.60;1.50;;;26.10;67.70;;;;;;4975959;28;20491;-84
2022/11/01 00:46:35;;;;;;;1.57;1.47;;;25.90;67.60;;;;;;4975922;28;20445;-86
2022/11/01 00:49:02;;;;;;;1.83;1.73;;;26.00;67.70;;;;;;4976096;28;20447;-84
2022/11/01 00:51:29;;;;;;;2.00;1.70;;;25.90;67.70;;;;;;4975803;28;20445;-85
2022/11/01 00:53:55;;;;;;;1.77;1.67;;;25.90;67.80;;;;;;4975756;28;20452;-84
2022/11/01 00:56:22;;;;;;;1.60;1.50;;;26.00;67.90;;;;;;4975703;28;20459;-85
2022/11/01 00:58:49;;;;;;;1.70;1.60;;;26.00;67.80;;;;;;4976213;28;20445;-84
2022/11/01 01:01:17;;;;;;;1.63;1.50;;;25.90;67.80;;;;;;4975602;28;20809;-84
2022/11/01 01:03:44;;;;;;;1.80;1.70;;;25.90;67.70;;;;;;4975600;28;20458;-84
2022/11/01 01:06:10;;;;;;;1.70;1.60;;;26.00;67.90;;;;;;4975167;28;20488;-85
2022/11/01 01:08:37;;;;;;;2.37;1.90;;;25.90;67.80;;;;;;4975540;28;20448;-85
2022/11/01 01:11:04;;;;;;;1.80;1.70;;;25.90;67.90;;;;;;4975466;28;20452;-84
2022/11/01 01:13:31;;;;;;;1.90;1.80;;;25.90;67.90;;;;;;4975184;28;21009;-84
2022/11/01 01:15:58;;;;;;;2.10;2.00;;;25.90;67.90;;;;;;4975387;28;20475;-85
2022/11/01 01:18:27;;;;;;;1.50;1.40;;;25.90;68.00;;;;;;4974944;28;20484;-84
2022/11/01 01:21:00;;;;;;;1.50;1.40;;;25.90;68.10;;;;;;4975319;28;20449;-85
2022/11/01 01:23:27;;;;;;;1.90;1.80;;;26.00;68.10;;;;;;4975349;28;20438;-85
2022/11/01 01:25:54;;;;;;;1.53;1.43;;;25.90;68.00;;;;;;4974891;28;20489;-85
2022/11/01 01:28:21;;;;;;;1.70;1.60;;;25.90;68.10;;;;;;4974616;28;20445;-85
2022/11/01 01:30:48;;;;;;;1.63;1.43;;;25.90;68.10;;;;;;4975014;28;20474;-85
2022/11/01 01:33:15;;;;;;;1.80;1.70;;;25.90;68.10;;;;;;4975199;28;20448;-84
2022/11/01 01:35:43;;;;;;;1.83;1.73;;;25.90;68.20;;;;;;4975069;28;20447;-84
2022/11/01 01:38:10;;;;;;;1.87;1.77;;;25.90;68.10;;;;;;4974822;28;20951;-85
2022/11/01 01:40:36;;;;;;;1.60;1.50;;;25.90;68.20;;;;;;4974795;28;20451;-84
2022/11/01 01:43:03;;;;;;;2.20;1.87;;;25.90;68.10;;;;;;4974786;28;20943;-84
2022/11/01 01:45:34;;;;;;;1.93;1.80;;;25.90;68.20;;;;;;4974955;28;20851;-84
2022/11/01 01:48:09;;;;;;;1.40;1.30;;;25.90;68.20;;;;;;4975074;28;20421;-84
2022/11/01 01:50:39;;;;;;;3.43;1.40;;;25.90;68.20;;;;;;4975053;28;20451;-84
2022/11/01 01:53:13;;;;;;;1.50;1.40;;;26.10;68.40;;;;;;4974689;28;20437;-87
2022/11/01 01:55:42;;;;;;;1.70;1.60;;;25.90;68.10;;;;;;4974993;28;20433;-84
2022/11/01 01:58:11;;;;;;;1.90;1.80;;;25.90;68.10;;;;;;4974861;28;20452;-85
2022/11/01 02:00:38;;;;;;;1.70;1.60;;;25.90;68.10;;;;;;4974638;28;20958;-84
2022/11/01 02:03:07;;;;;;;1.67;1.57;;;25.90;68.10;;;;;;4974564;28;20451;-84
2022/11/01 02:05:40;;;;;;;1.47;1.37;;;25.90;68.20;;;;;;4974482;28;20486;-85
2022/11/01 02:08:08;;;;;;;1.80;1.70;;;25.90;68.20;;;;;;4974843;28;20447;-84
2022/11/01 02:10:36;;;;;;;1.67;1.57;;;25.90;68.20;;;;;;4974549;28;20464;-84
2022/11/01 02:13:02;;;;;;;1.30;1.20;;;25.90;68.20;;;;;;4974494;28;20977;-84
2022/11/01 02:15:39;;;;;;;1.40;1.30;;;25.90;68.10;;;;;;4974782;28;20548;-85
2022/11/01 02:18:18;;;;;;;1.60;1.50;;;25.90;68.10;;;;;;4974732;28;20482;-84
2022/11/01 02:21:22;;;;;;;1.60;1.50;;;25.90;68.20;;;;;;4974744;28;20447;-84
2022/11/01 02:24:25;;;;;;;1.50;1.40;;;26.00;68.20;;;;;;4974656;28;20443;-84
2022/11/01 02:27:10;;;;;;;1.80;1.70;;;25.90;68.20;;;;;;4969315;28;20466;-85
2022/11/01 02:33:17;;;;;;;1.47;1.37;;;25.90;68.20;;;;;;4974459;28;20401;-85
2022/11/01 02:35:53;;;;;;;1.40;1.30;;;25.90;68.40;;;;;;4974595;28;20788;-84
2022/11/01 02:38:26;;;;;;;1.50;1.40;;;25.90;68.40;;;;;;4974563;28;20439;-84
2022/11/01 02:40:59;;;;;;;1.60;1.50;;;25.80;68.30;;;;;;4975032;28;20424;-83
2022/11/01 02:43:32;;;;;;;1.50;1.40;;;25.90;68.40;;;;;;4978271;28;20436;-84
2022/11/01 02:46:59;;;;;;;1.60;1.50;;;25.90;68.30;;;;;;4978137;28;20475;-84
2022/11/01 02:48:52;;;;;;;1.60;1.50;;;25.90;68.30;;;;;;4977639;28;20927;-84
2022/11/01 02:51:22;;;;;;;1.60;1.50;;;25.90;68.30;;;;;;4978088;28;20820;-85
2022/11/01 02:53:49;;;;;;;1.60;1.50;;;25.80;68.20;;;;;;4978021;28;20455;-84
2022/11/01 02:56:17;;;;;;;1.60;1.50;;;26.00;68.40;;;;;;4977938;28;20458;-84
2022/11/01 02:58:45;;;;;;;1.50;1.40;;;25.90;68.20;;;;;;4977954;28;20449;-85
2022/11/01 03:01:19;;;;;;;2.00;1.80;;;25.90;68.30;;;;;;4977803;28;20436;-85
2022/11/01 03:03:49;;;;;;;1.30;1.20;;;26.00;68.30;;;;;;4977539;28;20444;-85
2022/11/01 03:09:41;;;;;;;1.20;1.10;;;25.90;68.20;;;;;;4977841;28;20400;-86
2022/11/01 03:12:14;;;;;;;1.73;1.63;;;25.80;68.30;;;;;;4977760;28;20429;-85
2022/11/01 03:14:48;;;;;;;2.40;1.50;;;25.80;68.30;;;;;;4978236;28;20436;-85
2022/11/01 03:17:25;;;;;;;1.43;1.33;;;25.90;68.30;;;;;;4977195;28;20483;-85
2022/11/01 03:19:58;;;;;;;1.43;1.33;;;25.80;68.20;;;;;;4977494;28;20439;-84
2022/11/01 03:22:30;;;;;;;1.53;1.43;;;25.90;68.30;;;;;;4977490;28;20773;-85
2022/11/01 03:25:36;;;;;;;1.50;1.30;;;25.90;68.40;;;;;;4977078;28;20472;-84
2022/11/01 03:27:56;;;;;;;1.53;1.43;;;25.90;68.30;;;;;;4977036;28;20970;-84
2022/11/01 03:30:23;;;;;;;2.10;1.33;;;25.80;68.30;;;;;;4977305;28;20445;-84
2022/11/01 03:32:54;;;;;;;1.60;1.50;;;25.90;68.30;;;;;;4977386;28;20454;-84
2022/11/01 03:35:24;;;;;;;1.53;1.43;;;25.90;68.40;;;;;;4977047;28;20447;-84
2022/11/01 03:37:54;;;;;;;1.67;1.57;;;25.80;68.30;;;;;;4976926;28;20453;-84
2022/11/01 03:40:25;;;;;;;1.10;1.00;;;25.80;68.30;;;;;;4977269;28;20437;-84
2022/11/01 03:42:54;;;;;;;1.70;1.40;;;25.80;68.20;;;;;;4977190;28;20805;-85
2022/11/01 03:45:25;;;;;;;1.53;1.17;;;25.90;68.30;;;;;;4977104;28;20487;-86
2022/11/01 03:47:52;;;;;;;1.37;1.20;;;25.90;68.30;;;;;;4976974;28;20458;-85
2022/11/01 03:50:21;;;;;;;1.57;1.23;;;25.90;68.30;;;;;;4976996;28;20455;-84
2022/11/01 03:52:48;;;;;;;1.47;1.37;;;25.90;68.30;;;;;;4976420;28;20958;-84
2022/11/01 03:55:19;;;;;;;1.63;1.53;;;25.80;68.30;;;;;;4977453;28;20459;-84
2022/11/01 03:57:48;;;;;;;1.57;1.47;;;25.80;68.30;;;;;;4976528;28;20445;-85
2022/11/01 04:00:16;;;;;;;1.73;1.63;;;25.80;68.30;;;;;;4976866;28;20446;-84
2022/11/01 04:02:43;;;;;;;1.53;1.43;;;25.80;68.30;;;;;;4976741;28;20452;-85
2022/11/01 04:08:32;;;;;;;1.70;1.60;;;25.90;68.30;;;;;;4976521;28;20467;-84
2022/11/01 04:10:59;;;;;;;1.30;1.20;;;25.80;68.50;;;;;;4976610;28;20443;-85
2022/11/01 04:13:27;;;;;;;1.43;1.33;;;25.80;68.40;;;;;;4976602;28;20809;-84
2022/11/01 04:21:45;;;;;;;1.20;1.10;;;25.80;68.40;;;;;;4894656;29;20434;-85
2022/11/01 04:24:19;;;;;;;1.30;1.20;;;25.80;68.50;;;;;;4953280;28;20448;-84
2022/11/01 04:26:46;;;;;;;1.50;1.10;;;26.00;68.60;;;;;;4975982;28;20479;-84
2022/11/01 04:29:14;;;;;;;1.10;1.00;;;25.80;68.40;;;;;;4976339;28;20814;-84
2022/11/01 04:31:41;;;;;;;1.40;1.30;;;25.80;68.40;;;;;;4976202;28;20445;-84
2022/11/01 04:34:08;;;;;;;1.40;1.30;;;25.80;68.40;;;;;;4976242;28;20507;-85
2022/11/01 04:36:37;;;;;;;1.30;1.20;;;25.80;68.40;;;;;;4976109;28;20445;-84
2022/11/01 04:39:04;;;;;;;1.37;1.20;;;25.80;68.40;;;;;;4975776;28;20449;-84
2022/11/01 04:41:31;;;;;;;1.70;1.60;;;25.80;68.40;;;;;;4975706;28;20452;-85
2022/11/01 04:43:59;;;;;;;1.43;1.33;;;25.80;68.40;;;;;;4976012;28;20807;-84
2022/11/01 04:46:29;;;;;;;1.40;1.20;;;25.80;68.40;;;;;;4975856;28;20511;-84
2022/11/01 04:48:56;;;;;;;1.60;1.30;;;25.80;68.40;;;;;;4976021;28;20492;-85
2022/11/01 04:51:23;;;;;;;1.47;1.37;;;25.80;68.40;;;;;;4975855;28;20873;-85
2022/11/01 04:53:50;;;;;;;1.30;1.10;;;25.80;68.40;;;;;;4975442;28;20449;-85
2022/11/01 04:56:17;;;;;;;1.20;1.10;;;25.80;68.40;;;;;;4975780;28;20496;-84
2022/11/01 04:58:43;;;;;;;1.40;1.30;;;25.80;68.40;;;;;;4975417;28;20452;-85
2022/11/01 05:01:11;;;;;;;1.30;1.20;;;25.80;68.40;;;;;;4975702;28;20449;-84
2022/11/01 05:03:39;;;;;;;1.30;1.20;;;25.80;68.40;;;;;;4974607;28;20452;-85
2022/11/01 05:06:06;;;;;;;1.37;1.27;;;25.80;68.40;;;;;;4975545;28;20490;-84
2022/11/01 05:08:33;;;;;;;1.10;1.00;;;25.80;68.40;;;;;;4975263;28;20449;-84
2022/11/01 05:11:00;;;;;;;2.27;1.57;;;25.80;68.50;;;;;;4975177;28;20521;-84
2022/11/01 05:13:26;;;;;;;1.40;1.30;;;25.80;68.40;;;;;;4975535;28;20444;-84
2022/11/01 05:15:53;;;;;;;1.30;1.20;;;25.80;68.40;;;;;;4975136;28;20965;-85
2022/11/01 05:18:20;;;;;;;1.40;1.30;;;25.80;68.40;;;;;;4975012;28;20485;-84
2022/11/01 05:20:48;;;;;;;1.40;1.30;;;25.80;68.50;;;;;;4975385;28;20456;-85
2022/11/01 05:23:15;;;;;;;1.37;1.23;;;25.80;68.50;;;;;;4975350;28;20440;-85
2022/11/01 05:25:41;;;;;;;1.37;1.27;;;25.80;68.40;;;;;;4975240;28;20492;-85
2022/11/01 05:28:12;;;;;;;1.37;1.27;;;25.80;68.40;;;;;;4974958;28;20447;-84
2022/11/01 05:30:40;;;;;;;1.10;1.00;;;25.80;68.40;;;;;;4976077;28;20436;-84
2022/11/01 05:33:08;;;;;;;1.17;1.07;;;25.80;68.50;;;;;;4975207;28;20445;-85
2022/11/01 05:35:36;;;;;;;1.20;1.10;;;25.80;68.50;;;;;;4974847;28;20464;-85
2022/11/01 05:38:04;;;;;;;1.30;1.20;;;25.80;68.50;;;;;;4975136;28;20863;-85
2022/11/01 05:40:31;;;;;;;1.17;1.07;;;25.80;68.50;;;;;;4975066;28;20449;-84
2022/11/01 05:42:58;;;;;;;1.73;1.30;;;25.80;68.50;;;;;;4974762;28;20566;-85
2022/11/01 05:45:25;;;;;;;1.30;1.20;;;25.80;68.50;;;;;;4975029;28;20444;-84
2022/11/01 05:47:52;;;;;;;1.37;1.27;;;25.80;68.50;;;;;;4975025;28;20806;-84
2022/11/01 05:50:19;;;;;;;1.00;0.90;;;25.80;68.50;;;;;;4975072;28;20450;-84
2022/11/01 05:52:46;;;;;;;1.50;1.40;;;25.80;68.50;;;;;;4974914;28;20447;-85
2022/11/01 05:55:14;;;;;;;1.57;1.47;;;25.80;68.50;;;;;;4974926;28;20462;-85
2022/11/01 05:57:41;;;;;;;2.90;1.40;;;25.80;68.50;;;;;;4974928;28;20452;-84
2022/11/01 06:00:09;;;;;;;1.20;1.10;;;25.80;68.50;;;;;;4974858;28;20448;-85
2022/11/01 06:02:36;;;;;;;1.20;1.10;;;25.80;68.50;;;;;;4974929;28;20441;-85
2022/11/01 06:05:03;;;;;;;1.30;1.20;;;25.80;68.50;;;;;;4974778;28;20455;-84
2022/11/01 06:07:30;;;;;;;1.20;1.10;;;25.80;68.50;;;;;;4974796;28;20495;-84
2022/11/01 06:09:56;;;;;;;1.30;1.20;;;25.80;68.50;;;;;;4974798;28;20444;-84
2022/11/01 06:12:25;;;;;;;1.30;1.20;;;25.90;68.60;;;;;;4974824;28;20448;-85
2022/11/01 06:14:52;;;;;;;1.33;1.23;;;25.80;68.50;;;;;;4975313;28;20499;-85
2022/11/01 06:17:19;;;;;;;1.30;1.20;;;25.80;68.50;;;;;;4978391;28;20474;-85
2022/11/01 06:19:45;;;;;;;1.43;1.33;;;25.80;68.50;;;;;;4978418;28;20958;-84
2022/11/01 06:22:12;;;;;;;1.60;1.50;;;25.80;68.50;;;;;;4978593;28;20448;-84
2022/11/01 06:24:39;;;;;;;1.27;1.17;;;25.80;68.50;;;;;;4978541;28;20452;-85
2022/11/01 06:27:06;;;;;;;1.20;1.10;;;25.80;68.50;;;;;;4978424;28;20490;-85
2022/11/01 06:29:34;;;;;;;1.27;1.10;;;25.80;68.50;;;;;;4978449;28;20444;-85
2022/11/01 06:32:03;;;;;;;1.50;1.40;;;25.80;68.50;;;;;;4978143;28;20453;-84
2022/11/01 06:34:30;;;;;;;1.20;1.10;;;25.80;68.40;;;;;;4978297;28;20459;-85
2022/11/01 06:36:57;;;;;;;1.50;1.40;;;25.80;68.50;;;;;;4978341;28;20502;-84
2022/11/01 06:39:24;;;;;;;1.20;1.10;;;25.80;68.40;;;;;;4978345;28;20445;-85
2022/11/01 06:45:14;;;;;;;1.10;1.00;;;25.80;68.40;;;;;;4978262;28;20816;-85
2022/11/01 06:47:46;;;;;;;1.20;1.10;;;25.70;68.40;;;;;;4977996;28;20489;-84
2022/11/01 06:50:13;;;;;;;1.30;1.20;;;25.70;68.40;;;;;;4978180;28;20429;-85
2022/11/01 06:52:39;;;;;;;1.10;1.00;;;25.80;68.50;;;;;;4978056;28;20445;-85
2022/11/01 06:55:07;;;;;;;1.37;1.27;;;25.80;68.40;;;;;;4978319;28;20444;-85
2022/11/01 06:57:34;;;;;;;1.10;1.00;;;25.80;68.40;;;;;;4977661;28;20448;-86
2022/11/01 07:00:01;;;;;;;1.10;1.00;;;25.80;68.30;;;;;;4977630;28;20939;-88
2022/11/01 07:09:13;;;;;;;1.97;1.23;;;25.80;68.20;;;;;;4977810;28;20450;-88
2022/11/01 07:11:40;;;;;;;2.10;1.07;;;25.70;67.80;;;;;;4977663;28;20538;-84
2022/11/01 07:14:07;;;;;;;1.37;1.27;;;25.60;67.20;;;;;;4977363;28;20445;-84
2022/11/01 07:16:33;;;;;;;1.50;1.20;;;25.60;67.30;;;;;;4977491;28;20487;-84
2022/11/01 07:19:00;;;;;;;1.13;1.03;;;25.70;67.60;;;;;;4977767;28;20432;-85
2022/11/01 07:21:27;;;;;;;1.10;1.00;;;25.70;67.90;;;;;;4977206;28;20445;-84
2022/11/01 07:23:54;;;;;;;1.87;1.23;;;25.70;68.00;;;;;;4977521;28;20821;-84
2022/11/01 07:26:22;;;;;;;1.00;0.90;;;25.70;68.00;;;;;;4976820;28;20845;-84
2022/11/01 07:28:49;;;;;;;1.20;1.00;;;25.80;68.00;;;;;;4977161;28;20449;-84
2022/11/01 07:31:16;;;;;;;1.17;1.07;;;25.80;67.90;;;;;;4977305;28;20456;-84
2022/11/01 07:33:43;;;;;;;1.97;1.40;;;25.80;67.80;;;;;;4977230;28;20449;-84
2022/11/01 07:36:10;;;;;;;1.30;1.20;;;25.70;67.60;;;;;;4976972;28;20934;-84
2022/11/01 07:38:37;;;;;;;1.40;1.23;;;25.80;67.80;;;;;;4976895;28;20448;-84
2022/11/01 07:41:04;;;;;;;1.20;1.10;;;25.80;67.70;;;;;;4977197;28;20494;-84
2022/11/01 07:43:34;;;;;;;1.10;1.00;;;25.80;67.40;;;;;;4977176;28;20445;-84
2022/11/01 07:46:05;;;;;;;1.40;1.30;;;25.80;67.30;;;;;;4977070;28;20965;-86
2022/11/01 07:48:32;;;;;;;1.10;1.00;;;25.80;67.40;;;;;;4977093;28;20805;-84
2022/11/01 07:51:01;;;;;;;1.10;1.00;;;25.80;67.30;;;;;;4977073;28;20815;-84
2022/11/01 07:53:28;;;;;;;1.20;1.10;;;25.80;67.20;;;;;;4976986;28;20787;-84
2022/11/01 07:55:55;;;;;;;1.17;1.07;;;25.80;67.10;;;;;;4976894;28;20803;-84
2022/11/01 07:58:21;;;;;;;1.30;1.17;;;25.80;67.00;;;;;;4976939;28;20962;-84
2022/11/01 08:00:49;;;;;;;1.63;1.20;;;25.80;67.00;;;;;;4976861;28;20459;-84
2022/11/01 08:03:18;;;;;;;2.23;1.20;;;25.80;67.00;;;;;;4976858;28;20451;-84
2022/11/01 08:05:45;;;;;;;1.53;0.87;;;25.90;67.20;;;;;;4976773;28;20802;-84
2022/11/01 08:08:13;;;;;;;1.50;1.00;;;25.90;67.20;;;;;;4976654;28;20853;-84
2022/11/01 08:10:41;;;;;;;1.23;1.13;;;25.90;68.00;;;;;;4976617;28;20445;-84
2022/11/01 08:13:13;;;;;;;1.20;1.10;;;25.90;67.10;;;;;;4976578;28;20444;-84
2022/11/01 08:15:41;;;;;;;1.13;1.00;;;26.00;67.00;;;;;;4976326;28;20946;-84
2022/11/01 08:18:09;;;;;;;1.17;1.07;;;26.10;67.20;;;;;;4976099;28;20487;-84
2022/11/01 08:20:36;;;;;;;1.10;1.00;;;26.10;67.60;;;;;;4976188;28;20448;-84
2022/11/01 08:23:03;;;;;;;1.00;0.90;;;26.20;67.50;;;;;;4976062;28;20457;-84
2022/11/01 08:25:30;;;;;;;0.83;0.80;;;26.20;67.00;;;;;;4976347;28;20469;-84
2022/11/01 08:28:01;;;;;;;1.00;0.90;;;26.30;66.80;;;;;;4976248;28;20492;-84
2022/11/01 08:30:27;;;;;;;4.03;1.00;;;26.40;66.50;;;;;;4976293;28;20790;-85
2022/11/01 08:32:58;;;;;;;1.00;0.90;;;26.40;66.00;;;;;;4976209;28;20449;-85
2022/11/01 08:35:26;;;;;;;1.23;0.90;;;26.40;65.30;;;;;;4975811;28;20449;-85
2022/11/01 08:37:54;;;;;;;1.17;0.90;;;26.50;64.60;;;;;;4976071;28;20471;-84
2022/11/01 08:40:21;;;;;;;1.10;1.00;;;26.50;64.50;;;;;;4976083;28;20460;-84
2022/11/01 08:42:48;;;;;;;1.10;1.00;;;26.60;65.30;;;;;;4976043;28;20453;-84
2022/11/01 08:45:15;;;;;;;0.93;0.87;;;26.70;65.70;;;;;;4976023;28;20450;-86
2022/11/01 08:47:43;;;;;;;1.60;1.00;;;26.80;65.70;;;;;;4975738;28;20493;-88
2022/11/01 08:50:12;;;;;;;1.40;1.13;;;26.90;65.50;;;;;;4975692;28;21002;-93
2022/11/01 08:52:40;;;;;;;6.30;1.10;;;27.00;64.90;;;;;;4975812;28;20922;-86
2022/11/01 08:55:08;;;;;;;1.17;1.07;;;27.30;64.70;;;;;;4975527;28;20956;-85
2022/11/01 08:57:35;;;;;;;1.30;1.10;;;27.50;64.50;;;;;;4975756;28;20445;-88
2022/11/01 09:00:03;;;;;;;1.60;1.00;;;27.60;64.00;;;;;;4975337;28;20476;-84
2022/11/01 09:02:30;;;;;;;2.23;1.57;;;27.70;63.70;;;;;;4975477;28;21042;-84
2022/11/01 09:04:56;;;;;;;1.53;0.90;;;27.70;63.90;;;;;;4975612;28;20521;-85
2022/11/01 09:07:23;;;;;;;4.10;1.43;;;27.70;64.20;;;;;;4975475;28;20488;-85
2022/11/01 09:09:51;;;;;;;1.50;1.30;;;27.80;64.40;;;;;;4976283;28;20460;-85
2022/11/01 09:12:18;;;;;;;2.40;1.10;;;28.00;63.80;;;;;;4975250;28;20529;-86
2022/11/01 09:14:47;;;;;;;1.40;0.90;;;28.30;63.10;;;;;;4975456;28;20453;-86
2022/11/01 09:17:13;;;;;;;1.20;1.10;;;28.70;62.50;;;;;;4975034;28;20477;-86
2022/11/01 09:19:41;;;;;;;1.53;1.10;;;29.10;61.70;;;;;;4975396;28;20445;-85
2022/11/01 09:22:08;;;;;;;1.03;0.93;;;29.40;60.50;;;;;;4976129;28;20824;-85
2022/11/01 09:24:35;;;;;;;2.20;1.20;;;29.70;60.00;;;;;;4975062;28;20454;-87
2022/11/01 09:27:04;;;;;;;2.47;1.13;;;30.10;59.50;;;;;;4975241;28;20574;-85
2022/11/01 09:29:31;;;;;;;1.90;1.10;;;30.30;59.20;;;;;;4975222;28;20454;-85
2022/11/01 09:31:57;;;;;;;1.97;1.10;;;30.60;59.00;;;;;;4975265;28;20502;-86
2022/11/01 09:34:24;;;;;;;1.60;1.00;;;30.90;58.90;;;;;;4975230;28;20448;-85
2022/11/01 09:36:52;;;;;;;1.37;1.00;;;31.10;58.70;;;;;;4975206;28;20449;-85
2022/11/01 09:39:20;;;;;;;1.20;1.03;;;31.30;58.40;;;;;;4974842;28;20452;-85
2022/11/01 09:41:51;;;;;;;1.00;0.90;;;31.50;58.10;;;;;;4974801;28;20542;-86
2022/11/01 09:44:25;;;;;;;1.20;1.00;;;31.80;58.00;;;;;;4975103;28;20433;-86
2022/11/01 09:46:55;;;;;;;3.20;1.40;;;31.90;57.80;;;;;;4974656;28;20997;-85
2022/11/01 09:49:25;;;;;;;1.20;1.10;;;32.00;57.70;;;;;;4974814;28;20445;-86
2022/11/01 09:51:52;;;;;;;1.60;1.10;;;32.20;57.50;;;;;;4975914;28;20481;-85
2022/11/01 09:54:22;;;;;;;1.20;1.10;;;32.30;57.30;;;;;;4975004;28;20445;-85
2022/11/01 09:56:59;;;;;;;1.10;1.00;;;32.50;57.20;;;;;;4975005;28;20457;-85
2022/11/01 09:59:32;;;;;;;2.40;1.23;;;32.60;57.00;;;;;;4974995;28;20437;-85
2022/11/01 10:02:17;;;;;;;1.13;0.83;;;32.80;56.80;;;;;;4974953;28;20451;-85
2022/11/01 10:05:06;;;;;;;1.10;0.90;;;33.00;56.60;;;;;;4974864;28;20442;-85
2022/11/01 10:07:45;;;;;;;1.20;1.10;;;33.10;56.50;;;;;;4974430;28;20535;-85
2022/11/01 10:10:27;;;;;;;4.63;1.00;;;33.10;56.50;;;;;;4974814;28;20443;-85
2022/11/01 10:13:07;;;;;;;1.63;1.07;;;33.00;56.60;;;;;;4974864;28;20532;-85
2022/11/01 10:15:45;;;;;;;2.30;0.90;;;32.80;56.90;;;;;;4975349;28;20447;-85
2022/11/01 10:18:24;;;;;;;1.40;1.30;;;32.40;57.30;;;;;;4974296;28;20484;-85
2022/11/01 10:20:51;;;;;;;1.30;1.20;;;32.10;57.90;;;;;;4974789;28;20787;-85
2022/11/01 10:23:30;;;;;;;1.07;0.97;;;31.70;58.50;;;;;;4974608;28;20453;-85
2022/11/01 10:25:57;;;;;;;1.20;1.07;;;31.40;59.00;;;;;;4974362;28;20923;-85
2022/11/01 10:28:29;;;;;;;1.33;1.23;;;31.00;59.50;;;;;;4974066;28;20489;-85
2022/11/01 10:31:03;;;;;;;1.87;1.10;;;30.80;60.00;;;;;;4974647;28;20440;-85
2022/11/01 10:33:34;;;;;;;1.40;1.10;;;30.50;60.50;;;;;;4974675;28;20447;-85
2022/11/01 10:36:04;;;;;;;1.20;1.10;;;30.30;61.00;;;;;;4974344;28;20433;-85
2022/11/01 10:38:37;;;;;;;2.97;1.17;;;30.10;61.50;;;;;;4974570;28;20446;-85
2022/11/01 10:41:17;;;;;;;1.90;1.27;;;30.00;61.90;;;;;;4974637;28;20891;-85
2022/11/01 10:43:46;;;;;;;1.87;1.00;;;29.90;62.40;;;;;;4974253;28;20439;-84
2022/11/01 10:46:20;;;;;;;1.27;1.17;;;29.70;62.60;;;;;;4974219;28;20464;-85
2022/11/01 10:48:49;;;;;;;1.40;1.30;;;29.60;62.90;;;;;;4974432;28;20530;-86
2022/11/01 10:51:20;;;;;;;3.20;1.30;;;29.50;63.20;;;;;;4974494;28;20473;-85
2022/11/01 10:53:50;;;;;;;1.43;1.33;;;29.50;63.50;;;;;;4974245;28;20431;-85
2022/11/01 10:56:21;;;;;;;1.57;1.40;;;29.40;63.70;;;;;;4974339;28;20935;-86
2022/11/01 10:58:53;;;;;;;1.97;1.20;;;29.50;64.10;;;;;;4974438;28;20533;-86
2022/11/01 11:01:26;;;;;;;3.43;1.77;;;29.30;64.10;;;;;;4974469;28;20446;-84
2022/11/01 11:03:56;;;;;;;1.20;1.10;;;29.20;64.30;;;;;;4977791;28;20537;-85
2022/11/01 11:06:24;;;;;;;1.40;1.30;;;29.20;64.50;;;;;;4977806;28;20534;-84
2022/11/01 11:08:54;;;;;;;1.23;1.07;;;29.10;64.60;;;;;;4977284;28;20490;-88
2022/11/01 11:11:31;;;;;;;3.43;1.10;;;29.10;63.40;;;;;;4977734;28;20441;-87
2022/11/01 11:14:01;;;;;;;3.30;1.47;;;28.80;60.80;;;;;;4978250;28;20763;-88
2022/11/01 11:16:36;;;;;;;1.20;1.00;;;28.70;60.10;;;;;;4977219;28;20449;-88
2022/11/01 11:19:15;;;;;;;1.60;1.23;;;28.60;60.30;;;;;;4977340;28;20440;-88
2022/11/01 11:21:43;;;;;;;1.40;1.20;;;28.50;60.90;;;;;;4977300;28;20439;-87
2022/11/01 11:24:18;;;;;;;1.30;1.20;;;28.30;61.10;;;;;;4977530;28;20515;-88
2022/11/01 11:26:46;;;;;;;1.90;1.00;;;28.20;61.50;;;;;;4977544;28;20428;-87
2022/11/01 11:29:27;;;;;;;1.40;1.00;;;28.10;61.80;;;;;;4977394;28;20451;-87
2022/11/01 11:31:58;;;;;;;1.60;1.13;;;28.10;62.10;;;;;;4977450;28;20538;-87
2022/11/01 11:34:28;;;;;;;1.77;1.10;;;28.00;62.20;;;;;;4977321;28;20452;-88
2022/11/01 11:36:55;;;;;;;4.73;1.20;;;28.00;62.40;;;;;;4977321;28;20473;-88
2022/11/01 11:39:27;;;;;;;1.20;1.10;;;27.90;62.50;;;;;;4977238;28;20475;-87
2022/11/01 11:41:54;;;;;;;1.30;1.20;;;27.90;62.70;;;;;;4977229;28;20552;-88
2022/11/01 11:44:40;;;;;;;1.23;1.03;;;27.80;62.60;;;;;;4977187;28;20447;-87
2022/11/01 11:47:23;;;;;;;1.70;1.23;;;27.80;62.60;;;;;;4977100;28;20447;-87
2022/11/01 11:49:52;;;;;;;1.13;0.90;;;27.80;62.70;;;;;;4976769;28;20440;-87
2022/11/01 11:52:22;;;;;;;2.03;0.97;;;27.70;62.70;;;;;;4977061;28;20447;-87
2022/11/01 11:54:49;;;;;;;1.30;1.10;;;27.70;62.80;;;;;;4976958;28;20451;-87
2022/11/01 11:57:19;;;;;;;1.47;1.07;;;27.70;62.90;;;;;;4976969;28;20541;-87
2022/11/01 11:59:51;;;;;;;1.30;1.20;;;27.70;62.90;;;;;;4976879;28;20472;-87
2022/11/01 12:02:23;;;;;;;0.93;0.83;;;27.60;63.00;;;;;;4976884;28;20517;-87
2022/11/01 12:04:56;;;;;;;1.83;1.10;;;27.60;62.90;;;;;;4976810;28;20470;-87
2022/11/01 12:07:26;;;;;;;2.00;1.27;;;27.60;62.90;;;;;;4976416;28;21069;-87
2022/11/01 12:09:55;;;;;;;1.10;0.90;;;27.60;62.90;;;;;;4976696;28;20466;-88
2022/11/01 12:12:24;;;;;;;1.20;1.00;;;27.60;62.70;;;;;;4976494;28;20447;-87
2022/11/01 12:14:51;;;;;;;1.27;1.17;;;27.60;62.70;;;;;;4976451;28;20454;-87
2022/11/01 12:17:45;;;;;;;1.10;0.73;;;27.50;62.70;;;;;;4976197;28;20842;-87
2022/11/01 12:20:18;;;;;;;1.40;1.30;;;27.60;62.70;;;;;;4972790;28;20489;-88
2022/11/01 12:22:50;;;;;;;1.90;0.97;;;27.50;62.70;;;;;;4976831;28;20797;-87
2022/11/01 12:25:21;;;;;;;1.23;1.00;;;27.50;62.60;;;;;;4976432;28;20790;-88
2022/11/01 12:27:58;;;;;;;0.93;0.83;;;27.50;62.60;;;;;;4976320;28;20488;-88
2022/11/01 12:30:26;;;;;;;1.03;0.90;;;27.50;62.50;;;;;;4976011;28;20920;-88
2022/11/01 12:32:58;;;;;;;1.00;0.90;;;27.50;62.50;;;;;;4976240;28;20935;-87
2022/11/01 12:35:29;;;;;;;1.20;0.97;;;27.50;62.60;;;;;;4975920;28;20940;-87
2022/11/01 12:38:15;;;;;;;1.17;1.07;;;27.50;62.60;;;;;;4975873;28;20442;-87
2022/11/01 12:40:43;;;;;;;1.70;1.10;;;27.50;62.40;;;;;;4975773;28;20537;-87
2022/11/01 12:43:15;;;;;;;2.77;1.10;;;27.50;62.50;;;;;;4975800;28;20454;-87
2022/11/01 12:45:49;;;;;;;0.90;0.80;;;27.50;63.50;;;;;;4976068;28;20803;-87
2022/11/01 12:48:23;;;;;;;1.07;0.97;;;27.50;62.70;;;;;;4975675;28;21010;-87
2022/11/01 12:50:54;;;;;;;1.73;1.10;;;27.50;62.70;;;;;;4976776;28;20439;-87
2022/11/01 12:53:26;;;;;;;0.90;0.80;;;27.50;62.80;;;;;;4976022;28;20439;-87
2022/11/01 12:55:53;;;;;;;1.50;1.27;;;27.50;62.70;;;;;;4975575;28;20446;-87
2022/11/01 12:58:22;;;;;;;1.70;0.93;;;27.50;62.80;;;;;;4975869;28;20561;-87
2022/11/01 13:01:16;;;;;;;1.37;1.07;;;27.50;62.80;;;;;;4975707;28;20461;-87
2022/11/01 13:03:50;;;;;;;1.03;0.90;;;27.50;62.60;;;;;;4975711;28;20445;-87
2022/11/01 13:09:51;;;;;;;1.03;0.93;;;27.50;62.50;;;;;;4975445;28;20550;-87
2022/11/01 13:12:27;;;;;;;1.20;1.00;;;27.40;62.80;;;;;;4975621;28;20434;-88
2022/11/01 13:15:03;;;;;;;1.27;1.00;;;27.40;62.80;;;;;;4975230;28;20470;-87
2022/11/01 13:17:39;;;;;;;1.93;1.00;;;27.40;63.60;;;;;;4975174;28;20532;-87
2022/11/01 13:20:23;;;;;;;1.30;1.00;;;27.40;62.80;;;;;;4975125;28;20435;-87
2022/11/01 13:23:00;;;;;;;1.10;1.00;;;27.40;62.70;;;;;;4975214;28;20433;-87
2022/11/01 13:25:36;;;;;;;1.10;0.90;;;27.30;62.70;;;;;;4975553;28;20434;-87
2022/11/01 13:28:13;;;;;;;1.30;1.10;;;27.30;62.70;;;;;;4975267;28;20480;-88
2022/11/01 13:30:47;;;;;;;1.60;1.00;;;27.30;62.80;;;;;;4975360;28;20523;-87
2022/11/01 13:33:20;;;;;;;1.53;1.17;;;27.30;62.80;;;;;;4975311;28;20481;-87